This is the latest recevied weather packets stored in our database for station/object G4KVI. If no packets are shown the sender has not sent any weather packets the latest 10 day(s).
| Time | Temp. | Humidity | Pressure | Rain* | Wind** | Luminosity | Snow |
|---|---|---|---|---|---|---|---|
| 1777902004 | 15.56° C | 72% | 1015.9 hPa | 0 mm | - | 52 W/m² | - |
| 1777901704 | 15.56° C | 71% | 1015.9 hPa | 0 mm | - | 72 W/m² | - |
| 1777901404 | 15.56° C | 73% | 1016.1 hPa | 0 mm | - | 84 W/m² | - |
| 1777901103 | 15.56° C | 74% | 1016 hPa | 0 mm | - | 83 W/m² | - |
| 1777898103 | 16.67° C | 64% | 1015.9 hPa | 0 mm | - | 968 W/m² | - |
| 1777897803 | 16.67° C | 65% | 1016 hPa | 0 mm | - | 300 W/m² | - |
| 1777897503 | 17.22° C | 65% | 1015.9 hPa | 0 mm | - | 327 W/m² | - |
| 1777897204 | 16.67° C | 66% | 1016.1 hPa | 0 mm | - | 927 W/m² | - |
| 1777896903 | 16.67° C | 69% | 1015.9 hPa | 0 mm | - | 837 W/m² | - |
| 1777896603 | 16.11° C | 71% | 1016 hPa | 0 mm | - | 340 W/m² | - |
| 1777896303 | 16.11° C | 71% | 1016.1 hPa | 0 mm | - | 809 W/m² | - |
| 1777896003 | 16.11° C | 72% | 1016.1 hPa | 0 mm | - | 343 W/m² | - |
| 1777895703 | 15.56° C | 73% | 1016.2 hPa | 0 mm | - | 826 W/m² | - |
| 1777895403 | 15.56° C | 74% | 1016 hPa | 0 mm | - | 830 W/m² | - |
| 1777895103 | 15.56° C | 73% | 1016.3 hPa | 0 mm | - | 269 W/m² | - |
| 1777894803 | 15.56° C | 76% | 1016.3 hPa | 0 mm | - | 313 W/m² | - |
| 1777894503 | 15° C | 76% | 1016.3 hPa | 0 mm | - | 453 W/m² | - |
| 1777894203 | 15° C | 76% | 1016 hPa | 0 mm | - | 233 W/m² | - |
| 1777893903 | 15.56° C | 75% | 1016.2 hPa | 0 mm | - | 283 W/m² | - |
| 1777893603 | 15.56° C | 76% | 1016.2 hPa | 0 mm | - | 872 W/m² | - |
| 1777893303 | 15° C | 77% | 1016.3 hPa | 0 mm | - | 367 W/m² | - |
| 1777893003 | 15° C | 75% | 1016.4 hPa | 0 mm | - | 378 W/m² | - |
| 1777892703 | 15.56° C | 75% | 1016.4 hPa | 0 mm | - | 326 W/m² | - |
| 1777892403 | 15.56° C | 75% | 1016.5 hPa | 0 mm | - | 776 W/m² | - |
| 1777892103 | 15° C | 76% | 1016 hPa | 0 mm | - | 856 W/m² | - |
* Rain latest hour (hover to see other rain measurements)
** Current wind speed in m/s (hover to see current wind gust speed)